Argyle, Missouri
Current Conditions -  °F | °C
As of 1:53 PM on Sunday 23 Nov 2014 (Local Time) from KVIH Reporting Station
Light Rain Light Rain  
Wind Chill: 54°   Ceiling: 500
Heat Index: 54°   Visibility: 9mi
Dew Point: 52°   Wind: 8mph
Humidity: 93%   Direction: 160°SSE
Pressure: 29.36"   Gusts: NA
Location:  38.29°N, 92.03°W
Report Text: KVIH 231953Z AUTO 16007KT 9SM -RA OVC005 12/11 A2936 RMK AO2 CIG 004V009 SLP941 P0006 T01220111
Loading
Personal Weather Stations






























Interactive Weather Map New forecast layout! Learn more

10-Day Weather Forecast

Advertisements
Track Severe Weather on mobile